Cedarville, West Virginia
Current Conditions -  °F | °C
As of 7:15 PM on Monday 24 Nov 2014 (Local Time) from KW22 Reporting Station
Few Clouds Few Clouds  
Wind Chill: 57°   Ceiling: Unl
Heat Index: 57°   Visibility: 10mi
Dew Point: 41°   Wind: 10mph
Humidity: 55%   Direction: 250°WSW
Pressure: 29.74"   Gusts: NA
Location:  38.84°N, 80.82°W
Report Text: KW22 250015Z AUTO 25009KT 10SM FEW065 FEW085 14/05 A2974 RMK AO2
Loading
Personal Weather Stations






























Interactive Weather Map New forecast layout! Learn more

10-Day Weather Forecast

Advertisements
Track Severe Weather on mobile